sensor_id;sensor_type;location;lat;lon;timestamp;temperature;humidity
15991;DHT22;8100;50.994;4.538;2023-09-12T00:02:18;19.00;99.90
15991;DHT22;8100;50.994;4.538;2023-09-12T00:05:06;18.90;99.90
15991;DHT22;8100;50.994;4.538;2023-09-12T00:07:54;18.90;99.90
15991;DHT22;8100;50.994;4.538;2023-09-12T00:10:41;18.80;99.90
15991;DHT22;8100;50.994;4.538;2023-09-12T00:13:30;18.90;99.90
15991;DHT22;8100;50.994;4.538;2023-09-12T00:16:17;18.90;99.90
15991;DHT22;8100;50.994;4.538;2023-09-12T00:19:05;18.90;99.90
15991;DHT22;8100;50.994;4.538;2023-09-12T00:21:52;18.80;99.90
15991;DHT22;8100;50.994;4.538;2023-09-12T00:24:39;18.80;99.90
15991;DHT22;8100;50.994;4.538;2023-09-12T00:27:27;18.80;99.90
15991;DHT22;8100;50.994;4.538;2023-09-12T00:30:15;18.80;99.90
15991;DHT22;8100;50.994;4.538;2023-09-12T00:33:03;18.80;99.90
15991;DHT22;8100;50.994;4.538;2023-09-12T00:35:51;18.90;99.90
15991;DHT22;8100;50.994;4.538;2023-09-12T00:38:38;19.00;99.90
15991;DHT22;8100;50.994;4.538;2023-09-12T00:41:25;18.90;99.90
15991;DHT22;8100;50.994;4.538;2023-09-12T00:44:12;18.90;99.90
15991;DHT22;8100;50.994;4.538;2023-09-12T00:47:03;19.00;99.90
15991;DHT22;8100;50.994;4.538;2023-09-12T00:49:51;19.10;99.90
15991;DHT22;8100;50.994;4.538;2023-09-12T00:52:38;19.10;99.90
15991;DHT22;8100;50.994;4.538;2023-09-12T00:55:26;19.20;99.90
15991;DHT22;8100;50.994;4.538;2023-09-12T00:58:14;19.10;99.90
15991;DHT22;8100;50.994;4.538;2023-09-12T01:01:02;19.10;99.90
15991;DHT22;8100;50.994;4.538;2023-09-12T01:03:51;19.00;99.90
15991;DHT22;8100;50.994;4.538;2023-09-12T01:06:39;19.10;99.90
15991;DHT22;8100;50.994;4.538;2023-09-12T01:09:27;19.10;99.90
15991;DHT22;8100;50.994;4.538;2023-09-12T01:12:14;19.00;99.90
15991;DHT22;8100;50.994;4.538;2023-09-12T01:15:02;18.90;99.90
15991;DHT22;8100;50.994;4.538;2023-09-12T01:17:52;18.90;99.90
15991;DHT22;8100;50.994;4.538;2023-09-12T01:20:45;18.80;99.90
15991;DHT22;8100;50.994;4.538;2023-09-12T01:23:46;18.70;99.90
15991;DHT22;8100;50.994;4.538;2023-09-12T01:26:42;18.70;99.90
15991;DHT22;8100;50.994;4.538;2023-09-12T01:29:37;18.50;99.90
15991;DHT22;8100;50.994;4.538;2023-09-12T01:32:25;18.40;99.90
15991;DHT22;8100;50.994;4.538;2023-09-12T01:35:13;18.50;99.90
15991;DHT22;8100;50.994;4.538;2023-09-12T01:38:00;18.40;99.90
15991;DHT22;8100;50.994;4.538;2023-09-12T01:40:49;18.40;99.90
15991;DHT22;8100;50.994;4.538;2023-09-12T01:43:37;18.30;99.90
15991;DHT22;8100;50.994;4.538;2023-09-12T01:46:27;18.20;99.90
15991;DHT22;8100;50.994;4.538;2023-09-12T01:49:17;18.20;99.90
15991;DHT22;8100;50.994;4.538;2023-09-12T01:52:06;18.20;99.90
15991;DHT22;8100;50.994;4.538;2023-09-12T01:54:55;18.10;99.90
15991;DHT22;8100;50.994;4.538;2023-09-12T01:57:42;18.10;99.90
15991;DHT22;8100;50.994;4.538;2023-09-12T02:00:30;18.10;99.90
15991;DHT22;8100;50.994;4.538;2023-09-12T02:03:19;18.10;99.90
15991;DHT22;8100;50.994;4.538;2023-09-12T02:06:06;18.00;99.90
15991;DHT22;8100;50.994;4.538;2023-09-12T02:08:54;18.10;99.90
15991;DHT22;8100;50.994;4.538;2023-09-12T02:11:41;18.20;99.90
15991;DHT22;8100;50.994;4.538;2023-09-12T02:14:28;18.10;99.90
15991;DHT22;8100;50.994;4.538;2023-09-12T02:17:15;18.00;99.90
15991;DHT22;8100;50.994;4.538;2023-09-12T02:20:06;17.90;99.90
15991;DHT22;8100;50.994;4.538;2023-09-12T02:22:53;17.90;99.90
15991;DHT22;8100;50.994;4.538;2023-09-12T02:25:40;17.90;99.90
15991;DHT22;8100;50.994;4.538;2023-09-12T02:28:28;18.00;99.90
15991;DHT22;8100;50.994;4.538;2023-09-12T02:31:15;18.00;99.90
15991;DHT22;8100;50.994;4.538;2023-09-12T02:34:02;18.00;99.90
15991;DHT22;8100;50.994;4.538;2023-09-12T02:36:51;17.90;99.90
15991;DHT22;8100;50.994;4.538;2023-09-12T02:39:39;18.00;99.90
15991;DHT22;8100;50.994;4.538;2023-09-12T02:42:26;17.90;99.90
15991;DHT22;8100;50.994;4.538;2023-09-12T02:45:14;18.00;99.90
15991;DHT22;8100;50.994;4.538;2023-09-12T02:48:01;18.10;99.90
15991;DHT22;8100;50.994;4.538;2023-09-12T02:50:48;18.40;99.90
15991;DHT22;8100;50.994;4.538;2023-09-12T02:53:37;18.40;99.90
15991;DHT22;8100;50.994;4.538;2023-09-12T02:56:24;18.40;99.90
15991;DHT22;8100;50.994;4.538;2023-09-12T02:59:11;18.50;99.90
15991;DHT22;8100;50.994;4.538;2023-09-12T03:01:59;18.60;99.90
15991;DHT22;8100;50.994;4.538;2023-09-12T03:04:46;18.60;99.90
15991;DHT22;8100;50.994;4.538;2023-09-12T03:07:33;18.70;99.90
15991;DHT22;8100;50.994;4.538;2023-09-12T03:10:22;18.90;99.90
15991;DHT22;8100;50.994;4.538;2023-09-12T03:13:11;18.90;99.90
15991;DHT22;8100;50.994;4.538;2023-09-12T03:15:59;19.00;99.90
15991;DHT22;8100;50.994;4.538;2023-09-12T03:18:46;19.00;99.90
15991;DHT22;8100;50.994;4.538;2023-09-12T03:21:33;18.90;99.90
15991;DHT22;8100;50.994;4.538;2023-09-12T03:24:21;19.10;99.90
15991;DHT22;8100;50.994;4.538;2023-09-12T03:27:12;19.10;99.90
15991;DHT22;8100;50.994;4.538;2023-09-12T03:29:59;19.00;99.90
15991;DHT22;8100;50.994;4.538;2023-09-12T03:32:46;19.00;99.90
15991;DHT22;8100;50.994;4.538;2023-09-12T03:35:34;19.20;99.90
15991;DHT22;8100;50.994;4.538;2023-09-12T03:38:21;19.00;99.90
15991;DHT22;8100;50.994;4.538;2023-09-12T03:41:08;19.00;99.90
15991;DHT22;8100;50.994;4.538;2023-09-12T03:43:57;18.90;99.90
15991;DHT22;8100;50.994;4.538;2023-09-12T03:46:44;19.10;99.90
15991;DHT22;8100;50.994;4.538;2023-09-12T03:49:32;18.90;99.90
15991;DHT22;8100;50.994;4.538;2023-09-12T03:52:19;18.90;99.90
15991;DHT22;8100;50.994;4.538;2023-09-12T03:55:07;19.00;99.90
15991;DHT22;8100;50.994;4.538;2023-09-12T03:57:54;18.90;99.90
15991;DHT22;8100;50.994;4.538;2023-09-12T04:00:43;19.00;99.90
15991;DHT22;8100;50.994;4.538;2023-09-12T04:03:30;18.80;99.90
15991;DHT22;8100;50.994;4.538;2023-09-12T04:06:18;18.90;99.90
15991;DHT22;8100;50.994;4.538;2023-09-12T04:09:05;18.70;99.90
15991;DHT22;8100;50.994;4.538;2023-09-12T04:11:52;18.90;99.90
15991;DHT22;8100;50.994;4.538;2023-09-12T04:14:39;18.70;99.90
15991;DHT22;8100;50.994;4.538;2023-09-12T04:17:28;18.80;99.90
15991;DHT22;8100;50.994;4.538;2023-09-12T04:20:15;18.80;99.90
15991;DHT22;8100;50.994;4.538;2023-09-12T04:23:03;18.80;99.90
15991;DHT22;8100;50.994;4.538;2023-09-12T04:25:50;18.70;99.90
15991;DHT22;8100;50.994;4.538;2023-09-12T04:28:38;18.60;99.90
15991;DHT22;8100;50.994;4.538;2023-09-12T04:31:25;18.80;99.90
15991;DHT22;8100;50.994;4.538;2023-09-12T04:34:13;18.70;99.90
15991;DHT22;8100;50.994;4.538;2023-09-12T04:37:01;18.60;99.90
15991;DHT22;8100;50.994;4.538;2023-09-12T04:39:49;18.60;99.90
15991;DHT22;8100;50.994;4.538;2023-09-12T04:42:36;18.60;99.90
15991;DHT22;8100;50.994;4.538;2023-09-12T04:45:23;18.60;99.90
15991;DHT22;8100;50.994;4.538;2023-09-12T04:48:11;18.40;99.90
15991;DHT22;8100;50.994;4.538;2023-09-12T04:50:59;18.40;99.90
15991;DHT22;8100;50.994;4.538;2023-09-12T04:53:46;18.50;99.90
15991;DHT22;8100;50.994;4.538;2023-09-12T04:56:37;18.50;99.90
15991;DHT22;8100;50.994;4.538;2023-09-12T04:59:24;18.40;99.90
15991;DHT22;8100;50.994;4.538;2023-09-12T05:02:12;18.50;99.90
15991;DHT22;8100;50.994;4.538;2023-09-12T05:04:59;18.60;99.90
15991;DHT22;8100;50.994;4.538;2023-09-12T05:07:50;18.40;99.90
15991;DHT22;8100;50.994;4.538;2023-09-12T05:10:38;18.40;99.90
15991;DHT22;8100;50.994;4.538;2023-09-12T05:13:25;18.40;99.90
15991;DHT22;8100;50.994;4.538;2023-09-12T05:16:12;18.40;99.90
15991;DHT22;8100;50.994;4.538;2023-09-12T05:19:00;18.30;99.90
15991;DHT22;8100;50.994;4.538;2023-09-12T05:21:48;18.30;99.90
15991;DHT22;8100;50.994;4.538;2023-09-12T05:24:36;18.20;99.90
15991;DHT22;8100;50.994;4.538;2023-09-12T05:27:23;18.20;99.90
15991;DHT22;8100;50.994;4.538;2023-09-12T05:30:11;18.10;99.90
15991;DHT22;8100;50.994;4.538;2023-09-12T05:32:59;18.30;99.90
15991;DHT22;8100;50.994;4.538;2023-09-12T05:35:46;18.20;99.90
15991;DHT22;8100;50.994;4.538;2023-09-12T05:38:33;18.10;99.90
15991;DHT22;8100;50.994;4.538;2023-09-12T05:41:22;18.00;99.90
15991;DHT22;8100;50.994;4.538;2023-09-12T05:44:10;18.20;99.90
15991;DHT22;8100;50.994;4.538;2023-09-12T05:46:59;18.00;99.90
15991;DHT22;8100;50.994;4.538;2023-09-12T05:49:46;18.00;99.90
15991;DHT22;8100;50.994;4.538;2023-09-12T05:52:34;18.10;99.90
15991;DHT22;8100;50.994;4.538;2023-09-12T05:55:21;18.10;99.90
15991;DHT22;8100;50.994;4.538;2023-09-12T05:58:11;18.00;99.90
15991;DHT22;8100;50.994;4.538;2023-09-12T06:00:58;18.10;99.90
15991;DHT22;8100;50.994;4.538;2023-09-12T06:03:46;18.20;99.90
15991;DHT22;8100;50.994;4.538;2023-09-12T06:06:33;18.10;99.90
15991;DHT22;8100;50.994;4.538;2023-09-12T06:09:20;18.20;99.90
15991;DHT22;8100;50.994;4.538;2023-09-12T06:12:08;18.10;99.90
15991;DHT22;8100;50.994;4.538;2023-09-12T06:14:56;18.40;99.90
15991;DHT22;8100;50.994;4.538;2023-09-12T06:17:43;18.40;99.90
15991;DHT22;8100;50.994;4.538;2023-09-12T06:20:31;18.40;99.90
15991;DHT22;8100;50.994;4.538;2023-09-12T06:23:18;18.70;99.90
15991;DHT22;8100;50.994;4.538;2023-09-12T06:26:05;18.70;99.90
15991;DHT22;8100;50.994;4.538;2023-09-12T06:28:53;18.90;99.90
15991;DHT22;8100;50.994;4.538;2023-09-12T06:31:42;19.00;99.90
15991;DHT22;8100;50.994;4.538;2023-09-12T06:34:29;19.10;99.90
15991;DHT22;8100;50.994;4.538;2023-09-12T06:37:16;19.30;99.90
15991;DHT22;8100;50.994;4.538;2023-09-12T06:40:05;19.30;99.90
15991;DHT22;8100;50.994;4.538;2023-09-12T06:42:52;19.10;99.90
15991;DHT22;8100;50.994;4.538;2023-09-12T06:45:40;19.10;99.90
15991;DHT22;8100;50.994;4.538;2023-09-12T06:48:29;19.20;99.90
15991;DHT22;8100;50.994;4.538;2023-09-12T06:51:17;19.30;99.90
15991;DHT22;8100;50.994;4.538;2023-09-12T06:54:04;19.60;99.90
15991;DHT22;8100;50.994;4.538;2023-09-12T06:56:51;19.70;99.90
15991;DHT22;8100;50.994;4.538;2023-09-12T06:59:39;19.80;99.90
15991;DHT22;8100;50.994;4.538;2023-09-12T07:02:26;20.20;99.90
15991;DHT22;8100;50.994;4.538;2023-09-12T07:05:15;20.40;99.90
15991;DHT22;8100;50.994;4.538;2023-09-12T07:08:03;20.30;99.90
15991;DHT22;8100;50.994;4.538;2023-09-12T07:10:50;20.50;99.90
15991;DHT22;8100;50.994;4.538;2023-09-12T07:13:40;20.50;99.90
15991;DHT22;8100;50.994;4.538;2023-09-12T07:16:27;20.50;99.90
15991;DHT22;8100;50.994;4.538;2023-09-12T07:19:15;20.60;99.90
15991;DHT22;8100;50.994;4.538;2023-09-12T07:22:04;20.70;99.90
15991;DHT22;8100;50.994;4.538;2023-09-12T07:24:51;20.70;99.90
15991;DHT22;8100;50.994;4.538;2023-09-12T07:27:39;20.50;99.90
15991;DHT22;8100;50.994;4.538;2023-09-12T07:30:26;20.40;99.90
15991;DHT22;8100;50.994;4.538;2023-09-12T07:33:15;20.30;99.90
15991;DHT22;8100;50.994;4.538;2023-09-12T07:36:02;20.20;99.90
15991;DHT22;8100;50.994;4.538;2023-09-12T07:38:51;20.30;99.90
15991;DHT22;8100;50.994;4.538;2023-09-12T07:41:38;20.30;99.90
15991;DHT22;8100;50.994;4.538;2023-09-12T07:44:28;20.30;99.90
15991;DHT22;8100;50.994;4.538;2023-09-12T07:47:15;20.10;99.90
15991;DHT22;8100;50.994;4.538;2023-09-12T07:50:03;20.30;99.90
15991;DHT22;8100;50.994;4.538;2023-09-12T07:52:52;20.30;99.90
15991;DHT22;8100;50.994;4.538;2023-09-12T07:55:41;20.40;99.90
15991;DHT22;8100;50.994;4.538;2023-09-12T07:58:32;20.50;99.90
15991;DHT22;8100;50.994;4.538;2023-09-12T08:01:19;20.60;99.90
15991;DHT22;8100;50.994;4.538;2023-09-12T08:04:06;20.60;99.90
15991;DHT22;8100;50.994;4.538;2023-09-12T08:06:54;20.70;99.90
15991;DHT22;8100;50.994;4.538;2023-09-12T08:09:52;21.00;99.90
15991;DHT22;8100;50.994;4.538;2023-09-12T08:12:41;21.00;99.90
15991;DHT22;8100;50.994;4.538;2023-09-12T08:15:28;21.10;99.90
15991;DHT22;8100;50.994;4.538;2023-09-12T08:18:15;21.00;99.90
15991;DHT22;8100;50.994;4.538;2023-09-12T08:21:02;21.30;99.90
15991;DHT22;8100;50.994;4.538;2023-09-12T08:23:50;21.20;99.90
15991;DHT22;8100;50.994;4.538;2023-09-12T08:26:37;21.10;99.90
15991;DHT22;8100;50.994;4.538;2023-09-12T08:29:27;21.70;99.90
15991;DHT22;8100;50.994;4.538;2023-09-12T08:32:14;22.30;99.90
15991;DHT22;8100;50.994;4.538;2023-09-12T08:35:01;22.40;99.90
15991;DHT22;8100;50.994;4.538;2023-09-12T08:37:50;22.50;99.90
15991;DHT22;8100;50.994;4.538;2023-09-12T08:40:37;22.60;99.90
15991;DHT22;8100;50.994;4.538;2023-09-12T08:43:25;22.60;99.90
15991;DHT22;8100;50.994;4.538;2023-09-12T08:46:15;22.70;99.90
15991;DHT22;8100;50.994;4.538;2023-09-12T08:49:05;22.60;99.90
15991;DHT22;8100;50.994;4.538;2023-09-12T08:51:53;22.50;99.90
15991;DHT22;8100;50.994;4.538;2023-09-12T08:54:40;22.80;84.00
15991;DHT22;8100;50.994;4.538;2023-09-12T08:57:27;22.70;23.30
15991;DHT22;8100;50.994;4.538;2023-09-12T09:00:15;23.00;38.20
15991;DHT22;8100;50.994;4.538;2023-09-12T09:03:04;22.90;7.10
15991;DHT22;8100;50.994;4.538;2023-09-12T09:05:52;22.90;48.30
15991;DHT22;8100;50.994;4.538;2023-09-12T09:08:42;23.10;17.90
15991;DHT22;8100;50.994;4.538;2023-09-12T09:11:30;23.10;83.60
15991;DHT22;8100;50.994;4.538;2023-09-12T09:14:17;23.40;1.00
15991;DHT22;8100;50.994;4.538;2023-09-12T09:17:04;23.40;1.00
15991;DHT22;8100;50.994;4.538;2023-09-12T09:19:53;23.40;1.00
15991;DHT22;8100;50.994;4.538;2023-09-12T09:22:56;23.30;1.00
15991;DHT22;8100;50.994;4.538;2023-09-12T09:25:51;23.10;1.00
15991;DHT22;8100;50.994;4.538;2023-09-12T09:28:39;23.30;1.00
15991;DHT22;8100;50.994;4.538;2023-09-12T09:31:26;23.30;1.00
15991;DHT22;8100;50.994;4.538;2023-09-12T09:34:15;23.40;1.00
15991;DHT22;8100;50.994;4.538;2023-09-12T09:37:04;23.60;1.00
15991;DHT22;8100;50.994;4.538;2023-09-12T09:39:52;23.70;1.00
15991;DHT22;8100;50.994;4.538;2023-09-12T09:42:39;23.80;1.00
15991;DHT22;8100;50.994;4.538;2023-09-12T09:45:26;24.00;1.00
15991;DHT22;8100;50.994;4.538;2023-09-12T09:48:18;24.00;1.00
15991;DHT22;8100;50.994;4.538;2023-09-12T09:51:06;24.10;33.30
15991;DHT22;8100;50.994;4.538;2023-09-12T09:53:55;24.20;1.00
15991;DHT22;8100;50.994;4.538;2023-09-12T09:56:47;24.20;1.00
15991;DHT22;8100;50.994;4.538;2023-09-12T09:59:35;24.30;1.00
15991;DHT22;8100;50.994;4.538;2023-09-12T10:02:25;24.40;1.00
15991;DHT22;8100;50.994;4.538;2023-09-12T10:05:13;24.10;1.00
15991;DHT22;8100;50.994;4.538;2023-09-12T10:08:07;24.00;1.00
15991;DHT22;8100;50.994;4.538;2023-09-12T10:10:57;24.20;1.00
15991;DHT22;8100;50.994;4.538;2023-09-12T10:13:49;24.20;1.00
15991;DHT22;8100;50.994;4.538;2023-09-12T10:16:42;24.40;1.00
15991;DHT22;8100;50.994;4.538;2023-09-12T10:19:37;24.50;1.00
15991;DHT22;8100;50.994;4.538;2023-09-12T10:22:29;24.20;1.00
15991;DHT22;8100;50.994;4.538;2023-09-12T10:25:17;24.50;1.00
15991;DHT22;8100;50.994;4.538;2023-09-12T10:28:06;25.00;99.90
15991;DHT22;8100;50.994;4.538;2023-09-12T10:30:54;25.10;99.90
15991;DHT22;8100;50.994;4.538;2023-09-12T10:33:44;24.40;99.90
15991;DHT22;8100;50.994;4.538;2023-09-12T10:36:33;24.30;1.00
15991;DHT22;8100;50.994;4.538;2023-09-12T10:39:22;24.20;1.00
15991;DHT22;8100;50.994;4.538;2023-09-12T10:42:11;24.30;1.00
15991;DHT22;8100;50.994;4.538;2023-09-12T10:45:01;24.20;1.00
15991;DHT22;8100;50.994;4.538;2023-09-12T10:47:49;24.20;1.00
15991;DHT22;8100;50.994;4.538;2023-09-12T10:50:37;24.70;1.00
15991;DHT22;8100;50.994;4.538;2023-09-12T10:53:26;25.10;1.00
15991;DHT22;8100;50.994;4.538;2023-09-12T10:56:17;25.30;99.90
15991;DHT22;8100;50.994;4.538;2023-09-12T10:59:14;25.00;99.90
15991;DHT22;8100;50.994;4.538;2023-09-12T11:02:28;24.60;99.90
15991;DHT22;8100;50.994;4.538;2023-09-12T11:05:35;24.50;1.00
15991;DHT22;8100;50.994;4.538;2023-09-12T11:08:22;24.40;1.00
15991;DHT22;8100;50.994;4.538;2023-09-12T11:11:19;24.50;1.00
15991;DHT22;8100;50.994;4.538;2023-09-12T11:14:07;24.70;1.00
15991;DHT22;8100;50.994;4.538;2023-09-12T11:17:20;25.10;1.00
15991;DHT22;8100;50.994;4.538;2023-09-12T11:20:10;25.30;1.00
15991;DHT22;8100;50.994;4.538;2023-09-12T11:23:09;25.30;99.90
15991;DHT22;8100;50.994;4.538;2023-09-12T11:26:04;24.90;99.90
15991;DHT22;8100;50.994;4.538;2023-09-12T11:28:53;24.50;99.90
15991;DHT22;8100;50.994;4.538;2023-09-12T11:31:41;24.20;1.00
15991;DHT22;8100;50.994;4.538;2023-09-12T11:34:41;24.20;1.00
15991;DHT22;8100;50.994;4.538;2023-09-12T11:37:30;24.40;1.00
15991;DHT22;8100;50.994;4.538;2023-09-12T11:40:23;25.10;99.90
15991;DHT22;8100;50.994;4.538;2023-09-12T11:43:20;25.00;99.90
15991;DHT22;8100;50.994;4.538;2023-09-12T11:46:07;25.30;99.90
15991;DHT22;8100;50.994;4.538;2023-09-12T11:48:56;25.60;99.90
15991;DHT22;8100;50.994;4.538;2023-09-12T11:51:48;25.60;99.90
15991;DHT22;8100;50.994;4.538;2023-09-12T11:54:36;25.60;99.90
15991;DHT22;8100;50.994;4.538;2023-09-12T11:57:25;25.30;99.90
15991;DHT22;8100;50.994;4.538;2023-09-12T12:00:13;25.40;99.90
15991;DHT22;8100;50.994;4.538;2023-09-12T12:03:06;25.40;53.50
15991;DHT22;8100;50.994;4.538;2023-09-12T12:05:54;25.30;1.00
15991;DHT22;8100;50.994;4.538;2023-09-12T12:08:42;25.70;1.00
15991;DHT22;8100;50.994;4.538;2023-09-12T12:11:30;26.00;28.70
15991;DHT22;8100;50.994;4.538;2023-09-12T12:14:18;26.10;1.00
15991;DHT22;8100;50.994;4.538;2023-09-12T12:17:07;26.10;22.50
15991;DHT22;8100;50.994;4.538;2023-09-12T12:19:55;26.20;1.00
15991;DHT22;8100;50.994;4.538;2023-09-12T12:22:42;26.20;1.00
15991;DHT22;8100;50.994;4.538;2023-09-12T12:25:32;26.00;1.00
15991;DHT22;8100;50.994;4.538;2023-09-12T12:28:21;26.00;1.00
15991;DHT22;8100;50.994;4.538;2023-09-12T12:31:09;26.10;1.00
15991;DHT22;8100;50.994;4.538;2023-09-12T12:33:57;26.10;1.00
15991;DHT22;8100;50.994;4.538;2023-09-12T12:36:45;26.60;1.00
15991;DHT22;8100;50.994;4.538;2023-09-12T12:39:34;26.90;1.00
15991;DHT22;8100;50.994;4.538;2023-09-12T12:42:21;26.70;1.00
15991;DHT22;8100;50.994;4.538;2023-09-12T12:45:14;26.40;1.00
15991;DHT22;8100;50.994;4.538;2023-09-12T12:48:01;26.50;1.00
15991;DHT22;8100;50.994;4.538;2023-09-12T12:50:49;26.60;1.00
15991;DHT22;8100;50.994;4.538;2023-09-12T12:53:40;26.60;1.00
15991;DHT22;8100;50.994;4.538;2023-09-12T12:56:28;26.60;1.00
15991;DHT22;8100;50.994;4.538;2023-09-12T12:59:16;26.20;1.00
15991;DHT22;8100;50.994;4.538;2023-09-12T13:02:05;26.00;1.00
15991;DHT22;8100;50.994;4.538;2023-09-12T13:04:52;26.20;1.00
15991;DHT22;8100;50.994;4.538;2023-09-12T13:07:39;26.50;1.00
15991;DHT22;8100;50.994;4.538;2023-09-12T13:10:27;26.40;1.00
15991;DHT22;8100;50.994;4.538;2023-09-12T13:13:14;26.30;1.00
15991;DHT22;8100;50.994;4.538;2023-09-12T13:16:01;26.20;1.00
15991;DHT22;8100;50.994;4.538;2023-09-12T13:18:52;25.90;1.00
15991;DHT22;8100;50.994;4.538;2023-09-12T13:21:39;25.90;1.00
15991;DHT22;8100;50.994;4.538;2023-09-12T13:24:26;26.00;1.00
15991;DHT22;8100;50.994;4.538;2023-09-12T13:27:14;25.90;1.00
15991;DHT22;8100;50.994;4.538;2023-09-12T13:30:02;26.00;1.00
15991;DHT22;8100;50.994;4.538;2023-09-12T13:32:50;26.00;1.00
15991;DHT22;8100;50.994;4.538;2023-09-12T13:35:40;26.20;1.00
15991;DHT22;8100;50.994;4.538;2023-09-12T13:38:27;25.90;1.00
15991;DHT22;8100;50.994;4.538;2023-09-12T13:41:14;25.80;1.00
15991;DHT22;8100;50.994;4.538;2023-09-12T13:44:02;25.70;1.00
15991;DHT22;8100;50.994;4.538;2023-09-12T13:46:49;25.60;1.00
15991;DHT22;8100;50.994;4.538;2023-09-12T13:49:37;25.80;1.00
15991;DHT22;8100;50.994;4.538;2023-09-12T13:52:26;25.80;1.00
15991;DHT22;8100;50.994;4.538;2023-09-12T13:55:14;25.40;1.00
15991;DHT22;8100;50.994;4.538;2023-09-12T13:58:02;25.30;1.00
15991;DHT22;8100;50.994;4.538;2023-09-12T14:00:50;25.30;1.00
15991;DHT22;8100;50.994;4.538;2023-09-12T14:03:37;25.30;1.00
15991;DHT22;8100;50.994;4.538;2023-09-12T14:06:24;25.20;1.00
15991;DHT22;8100;50.994;4.538;2023-09-12T14:09:13;25.10;1.00
15991;DHT22;8100;50.994;4.538;2023-09-12T14:12:01;25.10;1.00
15991;DHT22;8100;50.994;4.538;2023-09-12T14:14:49;25.10;1.00
15991;DHT22;8100;50.994;4.538;2023-09-12T14:17:36;25.10;1.00
15991;DHT22;8100;50.994;4.538;2023-09-12T14:20:23;25.00;1.00
15991;DHT22;8100;50.994;4.538;2023-09-12T14:23:11;24.90;1.00
15991;DHT22;8100;50.994;4.538;2023-09-12T14:25:59;25.00;1.00
15991;DHT22;8100;50.994;4.538;2023-09-12T14:28:46;25.10;1.00
15991;DHT22;8100;50.994;4.538;2023-09-12T14:31:34;25.00;1.00
15991;DHT22;8100;50.994;4.538;2023-09-12T14:34:22;24.90;1.00
15991;DHT22;8100;50.994;4.538;2023-09-12T14:37:12;24.70;1.00
15991;DHT22;8100;50.994;4.538;2023-09-12T14:40:03;24.60;1.00
15991;DHT22;8100;50.994;4.538;2023-09-12T14:42:52;24.50;1.00
15991;DHT22;8100;50.994;4.538;2023-09-12T14:45:40;24.50;1.00
15991;DHT22;8100;50.994;4.538;2023-09-12T14:48:27;24.40;1.00
15991;DHT22;8100;50.994;4.538;2023-09-12T14:51:17;24.40;1.00
15991;DHT22;8100;50.994;4.538;2023-09-12T14:54:04;24.30;1.00
15991;DHT22;8100;50.994;4.538;2023-09-12T14:56:52;24.40;1.00
15991;DHT22;8100;50.994;4.538;2023-09-12T14:59:40;24.30;1.00
15991;DHT22;8100;50.994;4.538;2023-09-12T15:02:28;24.30;1.00
15991;DHT22;8100;50.994;4.538;2023-09-12T15:05:17;24.30;1.00
15991;DHT22;8100;50.994;4.538;2023-09-12T15:08:05;24.30;1.00
15991;DHT22;8100;50.994;4.538;2023-09-12T15:10:52;24.30;1.00
15991;DHT22;8100;50.994;4.538;2023-09-12T15:13:40;24.30;1.00
15991;DHT22;8100;50.994;4.538;2023-09-12T15:16:28;24.30;1.00
15991;DHT22;8100;50.994;4.538;2023-09-12T15:19:20;24.20;1.00
15991;DHT22;8100;50.994;4.538;2023-09-12T15:22:07;24.30;1.00
15991;DHT22;8100;50.994;4.538;2023-09-12T15:24:54;24.20;1.00
15991;DHT22;8100;50.994;4.538;2023-09-12T15:27:42;24.20;1.00
15991;DHT22;8100;50.994;4.538;2023-09-12T15:30:29;24.10;1.00
15991;DHT22;8100;50.994;4.538;2023-09-12T15:33:19;24.20;1.00
15991;DHT22;8100;50.994;4.538;2023-09-12T15:36:08;24.30;1.00
15991;DHT22;8100;50.994;4.538;2023-09-12T15:38:55;24.20;1.00
15991;DHT22;8100;50.994;4.538;2023-09-12T15:41:43;24.10;1.00
15991;DHT22;8100;50.994;4.538;2023-09-12T15:44:31;23.90;1.00
15991;DHT22;8100;50.994;4.538;2023-09-12T15:47:18;23.80;1.00
15991;DHT22;8100;50.994;4.538;2023-09-12T15:50:08;23.70;1.00
15991;DHT22;8100;50.994;4.538;2023-09-12T15:52:55;23.60;1.00
15991;DHT22;8100;50.994;4.538;2023-09-12T15:55:42;23.60;1.00
15991;DHT22;8100;50.994;4.538;2023-09-12T15:58:30;23.60;1.00
15991;DHT22;8100;50.994;4.538;2023-09-12T16:01:17;23.50;1.00
15991;DHT22;8100;50.994;4.538;2023-09-12T16:04:05;23.50;1.00
15991;DHT22;8100;50.994;4.538;2023-09-12T16:06:53;23.40;1.00
15991;DHT22;8100;50.994;4.538;2023-09-12T16:09:41;23.30;1.00
15991;DHT22;8100;50.994;4.538;2023-09-12T16:12:28;23.30;1.00
15991;DHT22;8100;50.994;4.538;2023-09-12T16:15:15;23.20;28.40
15991;DHT22;8100;50.994;4.538;2023-09-12T16:18:03;23.20;99.90
15991;DHT22;8100;50.994;4.538;2023-09-12T16:20:50;23.10;99.90
15991;DHT22;8100;50.994;4.538;2023-09-12T16:23:39;23.00;99.90
15991;DHT22;8100;50.994;4.538;2023-09-12T16:26:26;23.00;99.90
15991;DHT22;8100;50.994;4.538;2023-09-12T16:29:13;22.90;99.90
15991;DHT22;8100;50.994;4.538;2023-09-12T16:32:01;22.90;99.90
15991;DHT22;8100;50.994;4.538;2023-09-12T16:34:48;22.90;99.90
15991;DHT22;8100;50.994;4.538;2023-09-12T16:37:36;22.90;1.00
15991;DHT22;8100;50.994;4.538;2023-09-12T16:40:24;22.80;1.00
15991;DHT22;8100;50.994;4.538;2023-09-12T16:43:11;22.80;1.00
15991;DHT22;8100;50.994;4.538;2023-09-12T16:45:59;22.70;1.00
15991;DHT22;8100;50.994;4.538;2023-09-12T16:48:46;22.60;1.00
15991;DHT22;8100;50.994;4.538;2023-09-12T16:51:33;22.60;1.00
15991;DHT22;8100;50.994;4.538;2023-09-12T16:54:21;22.60;1.00
15991;DHT22;8100;50.994;4.538;2023-09-12T16:57:09;22.60;1.00
15991;DHT22;8100;50.994;4.538;2023-09-12T16:59:59;22.60;1.00
15991;DHT22;8100;50.994;4.538;2023-09-12T17:02:47;22.50;1.00
15991;DHT22;8100;50.994;4.538;2023-09-12T17:05:34;22.50;1.00
15991;DHT22;8100;50.994;4.538;2023-09-12T17:08:22;22.50;3.20
15991;DHT22;8100;50.994;4.538;2023-09-12T17:11:09;22.40;99.90
15991;DHT22;8100;50.994;4.538;2023-09-12T17:13:58;22.30;99.90
15991;DHT22;8100;50.994;4.538;2023-09-12T17:16:48;22.20;99.90
15991;DHT22;8100;50.994;4.538;2023-09-12T17:19:35;22.00;99.90
15991;DHT22;8100;50.994;4.538;2023-09-12T17:22:23;22.00;99.90
15991;DHT22;8100;50.994;4.538;2023-09-12T17:25:10;21.90;1.00
15991;DHT22;8100;50.994;4.538;2023-09-12T17:27:58;21.90;1.00
15991;DHT22;8100;50.994;4.538;2023-09-12T17:30:47;21.80;1.00
15991;DHT22;8100;50.994;4.538;2023-09-12T17:33:36;21.80;1.00
15991;DHT22;8100;50.994;4.538;2023-09-12T17:36:23;21.70;1.00
15991;DHT22;8100;50.994;4.538;2023-09-12T17:39:10;21.70;1.00
15991;DHT22;8100;50.994;4.538;2023-09-12T17:41:58;21.60;1.00
15991;DHT22;8100;50.994;4.538;2023-09-12T17:44:46;21.60;1.00
15991;DHT22;8100;50.994;4.538;2023-09-12T17:47:35;21.50;1.00
15991;DHT22;8100;50.994;4.538;2023-09-12T17:50:22;21.50;1.00
15991;DHT22;8100;50.994;4.538;2023-09-12T17:53:10;21.50;1.00
15991;DHT22;8100;50.994;4.538;2023-09-12T17:55:58;21.50;36.90
15991;DHT22;8100;50.994;4.538;2023-09-12T17:58:46;21.40;69.90
15991;DHT22;8100;50.994;4.538;2023-09-12T18:01:33;21.30;64.90
15991;DHT22;8100;50.994;4.538;2023-09-12T18:04:23;21.30;66.20
15991;DHT22;8100;50.994;4.538;2023-09-12T18:07:11;21.20;65.70
15991;DHT22;8100;50.994;4.538;2023-09-12T18:09:58;21.20;99.90